Delmar, Delaware
Current Conditions -  °F | °C
As of 12:54 AM on Sunday 23 Nov 2014 (Local Time) from KSBY Reporting Station
Clear Clear  
Wind Chill: 29°   Ceiling: Unl
Heat Index: 34°   Visibility: 10mi
Dew Point: 27°   Wind: 6mph
Humidity: 75%   Direction: 200°SSW
Pressure: 30.29"   Gusts: NA
Location:  38.46°N, 75.58°W
Report Text: KSBY 230554Z AUTO 20005KT 10SM CLR 01/M03 A3029 RMK AO2 SLP260 T00111028 10044 20006 58010
Loading
Personal Weather Stations






























Interactive Weather Map New forecast layout! Learn more

10-Day Weather Forecast

Advertisements
Track Severe Weather on mobile